createdAt,value
2022-10-22T00:02:01.588Z,2.88
2022-10-22T00:04:32.942Z,3.08
2022-10-22T00:07:02.652Z,3.28
2022-10-22T00:09:29.921Z,3.20
2022-10-22T00:11:57.179Z,3.13
2022-10-22T00:14:24.514Z,3.33
2022-10-22T00:16:51.759Z,3.20
2022-10-22T00:19:19.055Z,3.03
2022-10-22T00:21:46.305Z,2.75
2022-10-22T00:24:13.734Z,3.00
2022-10-22T00:26:40.998Z,3.25
2022-10-22T00:29:08.234Z,3.42
2022-10-22T00:31:35.971Z,2.80
2022-10-22T00:34:03.517Z,3.30
2022-10-22T00:36:30.768Z,3.30
2022-10-22T00:38:57.945Z,3.13
2022-10-22T00:41:25.265Z,3.38
2022-10-22T00:43:56.877Z,3.15
2022-10-22T00:46:24.140Z,3.38
2022-10-22T00:48:52.114Z,3.20
2022-10-22T00:51:21.822Z,3.25
2022-10-22T00:53:53.521Z,3.28
2022-10-22T00:56:21.618Z,3.42
2022-10-22T00:58:55.415Z,3.67
2022-10-22T01:01:26.121Z,3.30
2022-10-22T01:03:54.273Z,3.45
2022-10-22T01:06:26.797Z,3.85
2022-10-22T01:08:56.576Z,3.38
2022-10-22T01:11:40.296Z,3.58
2022-10-22T01:14:14.575Z,3.30
2022-10-22T01:17:04.073Z,3.20
2022-10-22T01:19:46.641Z,3.47
2022-10-22T01:22:26.441Z,3.30
2022-10-22T01:24:54.113Z,3.38
2022-10-22T01:27:30.116Z,3.70
2022-10-22T01:30:07.159Z,3.35
2022-10-22T01:32:39.098Z,3.80
2022-10-22T01:35:09.339Z,3.38
2022-10-22T01:37:43.545Z,3.30
2022-10-22T01:40:11.889Z,3.50
2022-10-22T01:42:39.216Z,3.58
2022-10-22T01:45:14.603Z,2.90
2022-10-22T01:48:13.442Z,3.08
2022-10-22T01:51:03.455Z,3.67
2022-10-22T01:53:57.053Z,3.42
2022-10-22T01:56:30.730Z,3.30
2022-10-22T01:59:13.121Z,3.20
2022-10-22T02:02:32.311Z,3.10
2022-10-22T02:05:01.460Z,3.15
2022-10-22T02:09:57.332Z,3.40
2022-10-22T02:12:25.610Z,3.40
2022-10-22T02:14:54.657Z,2.95
2022-10-22T02:19:57.380Z,3.67
2022-10-22T02:22:26.183Z,3.30
2022-10-22T02:24:53.417Z,3.40
2022-10-22T02:27:25.760Z,3.40
2022-10-22T02:30:07.885Z,3.50
2022-10-22T02:32:54.297Z,3.67
2022-10-22T02:35:22.902Z,3.78
2022-10-22T02:37:51.133Z,3.60
2022-10-22T02:40:19.040Z,3.60
2022-10-22T02:42:48.288Z,3.53
2022-10-22T02:45:17.113Z,3.80
2022-10-22T02:47:44.350Z,3.55
2022-10-22T02:50:11.870Z,3.60
2022-10-22T02:52:39.460Z,3.75
2022-10-22T02:55:07.424Z,3.97
2022-10-22T02:57:34.684Z,3.90
2022-10-22T03:00:01.919Z,4.10
2022-10-22T03:02:29.225Z,3.35
2022-10-22T03:04:56.405Z,3.60
2022-10-22T03:07:23.684Z,3.30
2022-10-22T03:09:50.956Z,3.58
2022-10-22T03:12:18.136Z,3.97
2022-10-22T03:14:45.412Z,4.07
2022-10-22T03:17:12.586Z,3.58
2022-10-22T03:19:40.092Z,3.60
2022-10-22T03:22:13.549Z,4.05
2022-10-22T03:24:42.621Z,3.55
2022-10-22T03:29:38.190Z,3.22
2022-10-22T03:32:05.564Z,3.58
2022-10-22T03:34:32.840Z,3.50
2022-10-22T03:37:02.075Z,3.70
2022-10-22T03:41:57.889Z,4.03
2022-10-22T03:44:25.423Z,4.05
2022-10-22T03:46:52.701Z,3.50
2022-10-22T03:49:19.984Z,3.33
2022-10-22T03:51:47.212Z,3.85
2022-10-22T03:54:14.572Z,3.83
2022-10-22T03:56:41.797Z,4.05
2022-10-22T03:59:09.045Z,4.35
2022-10-22T04:01:36.470Z,3.83
2022-10-22T04:04:03.726Z,3.63
2022-10-22T04:06:31.365Z,3.80
2022-10-22T04:08:59.717Z,3.78
2022-10-22T04:11:27.010Z,3.30
2022-10-22T04:13:54.251Z,3.50
2022-10-22T04:16:25.065Z,3.95
2022-10-22T04:18:54.742Z,3.67
2022-10-22T04:21:21.983Z,3.95
2022-10-22T04:23:50.704Z,3.80
2022-10-22T04:26:18.529Z,3.75
2022-10-22T04:28:46.149Z,3.60
2022-10-22T04:31:17.709Z,3.58
2022-10-22T04:33:45.002Z,4.00
2022-10-22T04:36:15.241Z,3.55
2022-10-22T04:38:43.593Z,3.63
2022-10-22T04:41:12.867Z,3.63
2022-10-22T04:43:40.375Z,3.25
2022-10-22T04:46:09.191Z,3.58
2022-10-22T04:48:36.932Z,3.75
2022-10-22T04:51:04.328Z,3.40
2022-10-22T04:53:31.640Z,3.83
2022-10-22T04:56:29.116Z,3.65
2022-10-22T04:59:05.135Z,3.58
2022-10-22T05:01:42.808Z,3.55
2022-10-22T05:04:13.309Z,3.53
2022-10-22T05:06:40.647Z,3.80
2022-10-22T05:09:19.879Z,3.50
2022-10-22T05:11:49.630Z,3.45
2022-10-22T05:14:19.993Z,3.55
2022-10-22T05:16:48.543Z,3.65
2022-10-22T05:19:42.579Z,3.90
2022-10-22T05:22:09.804Z,3.30
2022-10-22T05:24:37.466Z,3.33
2022-10-22T05:27:04.973Z,3.22
2022-10-22T05:29:32.327Z,3.05
2022-10-22T05:32:00.787Z,3.17
2022-10-22T05:34:27.991Z,3.45
2022-10-22T05:36:55.252Z,3.75
2022-10-22T05:39:22.524Z,3.25
2022-10-22T05:41:49.789Z,2.90
2022-10-22T05:44:16.988Z,3.35
2022-10-22T05:46:44.277Z,3.22
2022-10-22T05:49:14.151Z,3.10
2022-10-22T05:51:41.437Z,3.20
2022-10-22T05:54:10.952Z,4.45
2022-10-22T05:56:39.166Z,2.85
2022-10-22T05:59:06.368Z,3.20
2022-10-22T06:01:35.504Z,2.88
2022-10-22T06:04:05.962Z,3.00
2022-10-22T06:06:43.346Z,3.08
2022-10-22T06:09:13.673Z,3.28
2022-10-22T06:11:40.974Z,2.85
2022-10-22T06:14:08.198Z,2.92
2022-10-22T06:16:35.483Z,3.35
2022-10-22T06:19:02.980Z,2.70
2022-10-22T06:21:31.083Z,2.83
2022-10-22T06:23:59.013Z,3.00
2022-10-22T06:26:26.229Z,3.15
2022-10-22T06:28:54.272Z,2.75
2022-10-22T06:31:21.560Z,2.40
2022-10-22T06:33:48.792Z,3.17
2022-10-22T06:36:20.129Z,2.88
2022-10-22T06:38:47.669Z,3.15
2022-10-22T06:41:16.560Z,2.88
2022-10-22T06:43:47.653Z,2.80
2022-10-22T06:46:19.190Z,2.72
2022-10-22T06:49:01.423Z,3.20
2022-10-22T06:51:28.881Z,3.10
2022-10-22T06:53:56.918Z,3.05
2022-10-22T06:56:26.221Z,3.00
2022-10-22T06:58:55.704Z,3.22
2022-10-22T07:01:24.424Z,3.05
2022-10-22T07:03:52.653Z,2.85
2022-10-22T07:06:20.610Z,3.15
2022-10-22T07:08:47.919Z,2.83
2022-10-22T07:11:27.026Z,2.60
2022-10-22T07:13:54.978Z,3.13
2022-10-22T07:16:25.659Z,2.85
2022-10-22T07:18:55.229Z,2.65
2022-10-22T07:21:22.765Z,2.58
2022-10-22T07:23:50.125Z,2.90
2022-10-22T07:26:18.162Z,2.75
2022-10-22T07:28:45.456Z,2.50
2022-10-22T07:31:14.100Z,2.50
2022-10-22T07:33:41.460Z,2.55
2022-10-22T07:36:11.962Z,2.60
2022-10-22T07:38:39.252Z,3.30
2022-10-22T07:41:06.590Z,2.95
2022-10-22T07:43:33.873Z,2.30
2022-10-22T07:46:02.711Z,2.47
2022-10-22T07:48:30.277Z,2.88
2022-10-22T07:50:58.358Z,2.42
2022-10-22T07:53:25.594Z,2.30
2022-10-22T07:55:53.072Z,2.67
2022-10-22T07:58:21.072Z,2.80
2022-10-22T08:00:49.512Z,2.53
2022-10-22T08:03:17.740Z,2.40
2022-10-22T08:05:45.539Z,2.20
2022-10-22T08:08:13.646Z,2.40
2022-10-22T08:10:41.139Z,2.40
2022-10-22T08:13:08.469Z,2.15
2022-10-22T08:15:36.516Z,2.38
2022-10-22T08:18:03.813Z,2.42
2022-10-22T08:20:31.054Z,2.25
2022-10-22T08:22:59.398Z,2.42
2022-10-22T08:25:26.809Z,2.53
2022-10-22T08:27:54.084Z,2.50
2022-10-22T08:30:21.466Z,2.28
2022-10-22T08:32:51.628Z,2.33
2022-10-22T08:35:21.157Z,2.78
2022-10-22T08:37:48.343Z,2.70
2022-10-22T08:40:45.171Z,2.10
2022-10-22T08:43:12.486Z,2.45
2022-10-22T08:46:10.237Z,2.72
2022-10-22T08:48:43.805Z,2.40
2022-10-22T08:51:13.611Z,2.25
2022-10-22T08:53:53.502Z,2.25
2022-10-22T08:56:22.764Z,2.20
2022-10-22T08:58:57.288Z,2.35
2022-10-22T09:01:36.829Z,2.15
2022-10-22T09:04:26.442Z,2.72
2022-10-22T09:06:55.272Z,1.85
2022-10-22T09:09:22.718Z,2.42
2022-10-22T09:11:55.367Z,2.40
2022-10-22T09:14:26.264Z,2.40
2022-10-22T09:17:11.918Z,2.40
2022-10-22T09:19:57.249Z,2.20
2022-10-22T09:22:50.912Z,2.55
2022-10-22T09:25:37.637Z,2.47
2022-10-22T09:28:05.254Z,2.60
2022-10-22T09:30:34.539Z,2.90
2022-10-22T09:33:01.752Z,2.50
2022-10-22T09:35:29.121Z,2.40
2022-10-22T09:37:57.050Z,2.63
2022-10-22T09:40:24.931Z,2.60
2022-10-22T09:42:52.960Z,2.40
2022-10-22T09:45:25.300Z,2.53
2022-10-22T09:48:06.586Z,2.70
2022-10-22T09:50:46.805Z,1.95
2022-10-22T09:53:21.622Z,2.42
2022-10-22T09:58:22.374Z,2.60
2022-10-22T10:00:54.183Z,2.70
2022-10-22T10:03:24.867Z,2.35
2022-10-22T10:05:56.753Z,2.15
2022-10-22T10:08:25.048Z,2.45
2022-10-22T10:10:59.758Z,2.78
2022-10-22T10:13:42.419Z,2.70
2022-10-22T10:16:33.676Z,2.30
2022-10-22T10:19:15.161Z,2.72
2022-10-22T10:21:53.324Z,2.42
2022-10-22T10:24:38.793Z,2.70
2022-10-22T10:27:12.985Z,2.58
2022-10-22T10:29:49.393Z,2.40
2022-10-22T10:32:29.030Z,2.45
2022-10-22T10:35:17.498Z,3.20
2022-10-22T10:40:33.071Z,2.30
2022-10-22T10:45:55.724Z,2.25
2022-10-22T10:48:48.533Z,6.03
2022-10-22T10:51:34.289Z,3.03
2022-10-22T10:54:07.236Z,2.90
2022-10-22T10:56:42.066Z,2.70
2022-10-22T10:59:14.725Z,2.47
2022-10-22T11:01:44.720Z,2.63
2022-10-22T11:04:25.733Z,2.42
2022-10-22T11:06:56.342Z,2.50
2022-10-22T11:09:34.380Z,2.80
2022-10-22T11:12:05.401Z,2.80
2022-10-22T11:14:57.466Z,2.55
2022-10-22T11:17:26.401Z,2.85
2022-10-22T11:20:09.709Z,2.38
2022-10-22T11:23:21.211Z,2.25
2022-10-22T11:25:49.704Z,2.08
2022-10-22T11:28:29.740Z,2.47
2022-10-22T11:31:02.346Z,2.78
2022-10-22T11:33:38.279Z,2.55
2022-10-22T11:36:07.425Z,2.30
2022-10-22T11:43:58.458Z,2.25
2022-10-22T11:46:43.832Z,2.00
2022-10-22T11:49:14.150Z,1.75
2022-10-22T11:51:42.876Z,2.08
2022-10-22T11:54:42.226Z,2.20
2022-10-22T11:57:14.937Z,2.35
2022-10-22T11:59:49.595Z,2.15
2022-10-22T12:02:29.365Z,1.92
2022-10-22T12:05:19.127Z,2.03
2022-10-22T12:07:54.815Z,2.92
2022-10-22T12:10:23.804Z,2.40
2022-10-22T12:12:57.216Z,2.53
2022-10-22T12:15:27.470Z,2.50
2022-10-22T12:18:00.555Z,2.55
2022-10-22T12:20:28.457Z,2.60
2022-10-22T12:22:57.607Z,2.80
2022-10-22T12:25:26.100Z,2.35
2022-10-22T12:27:57.170Z,2.22
2022-10-22T12:30:26.737Z,2.45
2022-10-22T12:32:56.350Z,2.53
2022-10-22T12:35:25.746Z,2.38
2022-10-22T12:37:55.082Z,2.50
2022-10-22T12:40:22.422Z,2.20
2022-10-22T12:43:00.354Z,2.20
2022-10-22T12:45:34.333Z,2.25
2022-10-22T12:48:23.092Z,2.38
2022-10-22T12:50:53.321Z,2.47
2022-10-22T12:53:37.817Z,2.85
2022-10-22T12:56:42.084Z,2.10
2022-10-22T12:59:20.757Z,2.20
2022-10-22T13:01:50.039Z,2.40
2022-10-22T13:04:16.857Z,2.35
2022-10-22T13:06:52.248Z,2.30
2022-10-22T13:09:27.411Z,2.13
2022-10-22T13:12:03.145Z,2.42
2022-10-22T13:14:34.206Z,2.50
2022-10-22T13:17:08.239Z,2.22
2022-10-22T13:19:50.268Z,2.40
2022-10-22T13:25:05.609Z,2.28
2022-10-22T13:27:33.009Z,2.40
2022-10-22T13:30:03.716Z,2.20
2022-10-22T13:32:33.475Z,2.38
2022-10-22T13:35:02.375Z,2.80
2022-10-22T13:37:31.810Z,2.55
2022-10-22T13:39:59.181Z,2.45
2022-10-22T13:42:26.413Z,2.60
2022-10-22T13:44:53.683Z,2.80
2022-10-22T13:47:28.549Z,2.58
2022-10-22T13:50:12.982Z,2.92
2022-10-22T13:52:58.940Z,3.20
2022-10-22T13:55:29.289Z,2.67
2022-10-22T13:58:13.412Z,3.20
2022-10-22T14:00:43.309Z,3.20
2022-10-22T14:03:17.128Z,3.38
2022-10-22T14:05:46.300Z,3.67
2022-10-22T14:10:41.284Z,3.28
2022-10-22T14:13:16.203Z,3.20
2022-10-22T14:15:45.292Z,3.60
2022-10-22T14:20:43.000Z,2.90
2022-10-22T14:23:20.321Z,3.45
2022-10-22T14:25:47.947Z,3.00
2022-10-22T14:28:15.306Z,3.50
2022-10-22T14:30:42.484Z,3.20
2022-10-22T14:33:28.921Z,3.08
2022-10-22T14:36:00.077Z,3.08
2022-10-22T14:38:27.413Z,4.40
2022-10-22T14:40:54.842Z,3.20
2022-10-22T14:43:31.207Z,2.88
2022-10-22T14:45:58.530Z,3.17
2022-10-22T14:48:25.784Z,2.75
2022-10-22T14:50:53.099Z,3.20
2022-10-22T14:53:20.361Z,2.92
2022-10-22T14:55:49.145Z,2.80
2022-10-22T14:58:16.619Z,2.60
2022-10-22T15:00:44.042Z,2.90
2022-10-22T15:03:11.660Z,2.45
2022-10-22T15:05:45.173Z,2.42
2022-10-22T15:08:14.303Z,2.70
2022-10-22T15:13:08.796Z,2.85
2022-10-22T15:15:39.632Z,2.28
2022-10-22T15:18:07.401Z,2.80
2022-10-22T15:20:34.633Z,2.50
2022-10-22T15:23:01.902Z,2.85
2022-10-22T15:25:29.086Z,2.58
2022-10-22T15:28:01.834Z,2.50
2022-10-22T15:30:34.781Z,2.85
2022-10-22T15:33:02.292Z,2.58
2022-10-22T15:35:29.500Z,2.40
2022-10-22T15:37:56.787Z,2.45
2022-10-22T15:40:24.049Z,2.08
2022-10-22T15:42:51.270Z,2.00
2022-10-22T15:45:21.257Z,2.58
2022-10-22T15:47:49.311Z,2.63
2022-10-22T15:50:17.050Z,1.95
2022-10-22T15:52:44.266Z,2.38
2022-10-22T15:57:39.475Z,2.38
2022-10-22T16:00:07.425Z,2.05
2022-10-22T16:02:39.533Z,2.10
2022-10-22T16:05:07.124Z,2.35
2022-10-22T16:07:34.380Z,2.03
2022-10-22T16:10:01.789Z,2.38
2022-10-22T16:12:29.084Z,2.88
2022-10-22T16:14:56.396Z,2.10
2022-10-22T16:17:24.418Z,2.33
2022-10-22T16:19:51.639Z,2.65
2022-10-22T16:22:18.856Z,2.13
2022-10-22T16:24:46.291Z,2.50
2022-10-22T16:27:13.552Z,2.33
2022-10-22T16:29:40.983Z,2.30
2022-10-22T16:32:08.299Z,2.45
2022-10-22T16:34:35.491Z,2.35
2022-10-22T16:37:02.944Z,2.42
2022-10-22T16:39:30.206Z,2.30
2022-10-22T16:41:57.462Z,2.28
2022-10-22T16:44:24.804Z,2.33
2022-10-22T16:46:51.981Z,2.00
2022-10-22T16:49:19.217Z,2.00
2022-10-22T16:51:46.478Z,2.25
2022-10-22T16:54:15.603Z,2.65
2022-10-22T16:59:09.391Z,2.38
2022-10-22T17:01:40.615Z,2.47
2022-10-22T17:04:08.483Z,2.70
2022-10-22T17:06:35.703Z,2.42
2022-10-22T17:09:03.051Z,2.30
2022-10-22T17:11:34.819Z,2.65
2022-10-22T17:14:03.075Z,2.30
2022-10-22T17:16:30.736Z,2.55
2022-10-22T17:18:58.261Z,2.40
2022-10-22T17:21:25.867Z,2.58
2022-10-22T17:23:56.938Z,2.25
2022-10-22T17:26:26.919Z,2.13
2022-10-22T17:28:54.890Z,2.60
2022-10-22T17:31:24.952Z,2.83
2022-10-22T17:33:54.157Z,2.53
2022-10-22T17:38:50.561Z,2.70
2022-10-22T17:41:20.345Z,2.70
2022-10-22T17:43:48.356Z,2.50
2022-10-22T17:46:18.677Z,2.55
2022-10-22T17:48:50.149Z,2.92
2022-10-22T17:51:17.634Z,2.78
2022-10-22T17:53:46.076Z,3.13
2022-10-22T17:56:16.027Z,2.80
2022-10-22T17:58:43.321Z,2.72
2022-10-22T18:01:29.928Z,2.65
2022-10-22T18:04:00.919Z,2.92
2022-10-22T18:06:28.742Z,3.05
2022-10-22T18:08:56.157Z,3.40
2022-10-22T18:11:25.556Z,3.10
2022-10-22T18:13:54.605Z,3.67
2022-10-22T18:16:21.890Z,4.00
2022-10-22T18:18:50.569Z,4.10
2022-10-22T18:21:17.912Z,3.72
2022-10-22T18:23:45.764Z,4.07
2022-10-22T18:26:13.710Z,3.75
2022-10-22T18:28:40.992Z,3.97
2022-10-22T18:31:09.248Z,4.47
2022-10-22T18:33:37.602Z,4.55
2022-10-22T18:36:10.406Z,4.60
2022-10-22T18:38:41.075Z,4.45
2022-10-22T18:41:13.134Z,4.68
2022-10-22T18:43:40.353Z,4.47
2022-10-22T18:46:07.964Z,4.47
2022-10-22T18:48:36.131Z,4.28
2022-10-22T18:51:08.626Z,4.75
2022-10-22T18:53:37.109Z,5.03
2022-10-22T18:56:09.244Z,4.82
2022-10-22T18:58:40.259Z,4.25
2022-10-22T19:01:13.131Z,4.22
2022-10-22T19:03:40.754Z,4.43
2022-10-22T19:06:08.539Z,4.43
2022-10-22T19:08:36.951Z,4.05
2022-10-22T19:11:10.198Z,4.07
2022-10-22T19:13:37.421Z,4.15
2022-10-22T19:16:06.370Z,4.07
2022-10-22T19:18:33.671Z,4.05
2022-10-22T19:21:01.964Z,4.00
2022-10-22T19:23:32.500Z,4.78
2022-10-22T19:26:00.741Z,4.65
2022-10-22T19:28:27.993Z,3.83
2022-10-22T19:30:55.400Z,4.70
2022-10-22T19:33:22.627Z,4.53
2022-10-22T19:35:50.182Z,4.78
2022-10-22T19:38:17.398Z,4.78
2022-10-22T19:40:44.638Z,4.93
2022-10-22T19:43:13.532Z,5.82
2022-10-22T19:45:42.799Z,5.70
2022-10-22T19:48:10.125Z,6.07
2022-10-22T19:50:37.380Z,6.80
2022-10-22T19:53:04.646Z,6.35
2022-10-22T19:55:31.907Z,7.32
2022-10-22T19:57:59.128Z,6.70
2022-10-22T20:00:26.565Z,7.63
2022-10-22T20:02:53.774Z,7.05
2022-10-22T20:05:20.998Z,7.35
2022-10-22T20:07:48.265Z,6.63
2022-10-22T20:10:15.556Z,7.00
2022-10-22T20:12:42.765Z,7.85
2022-10-22T20:15:10.033Z,7.30
2022-10-22T20:17:37.320Z,7.30
2022-10-22T20:20:04.783Z,7.15
2022-10-22T20:22:32.009Z,7.20
2022-10-22T20:24:59.267Z,7.50
2022-10-22T20:27:26.504Z,7.45
2022-10-22T20:29:53.773Z,7.53
2022-10-22T20:32:22.143Z,7.40
2022-10-22T20:34:49.359Z,7.30
2022-10-22T20:37:16.623Z,7.15
2022-10-22T20:39:43.873Z,7.22
2022-10-22T20:42:11.121Z,7.15
2022-10-22T20:44:38.336Z,7.32
2022-10-22T20:47:05.586Z,7.43
2022-10-22T20:49:33.147Z,8.10
2022-10-22T20:52:00.460Z,8.27
2022-10-22T20:54:27.868Z,8.07
2022-10-22T20:56:55.124Z,7.78
2022-10-22T20:59:22.403Z,7.00
2022-10-22T21:01:53.523Z,6.72
2022-10-22T21:04:21.394Z,6.78
2022-10-22T21:06:50.235Z,6.60
2022-10-22T21:09:17.548Z,7.40
2022-10-22T21:11:45.169Z,6.60
2022-10-22T21:14:14.129Z,6.75
2022-10-22T21:16:42.314Z,6.47
2022-10-22T21:19:09.584Z,6.63
2022-10-22T21:21:36.815Z,6.55
2022-10-22T21:24:04.152Z,6.88
2022-10-22T21:26:31.431Z,6.95
2022-10-22T21:29:00.098Z,6.70
2022-10-22T21:31:27.863Z,7.55
2022-10-22T21:33:55.080Z,6.50
2022-10-22T21:36:23.622Z,6.97
2022-10-22T21:38:52.112Z,6.97
2022-10-22T21:41:20.068Z,7.50
2022-10-22T21:43:47.519Z,7.88
2022-10-22T21:46:25.850Z,7.57
2022-10-22T21:48:58.411Z,7.10
2022-10-22T21:51:25.829Z,7.68
2022-10-22T21:53:53.459Z,7.80
2022-10-22T21:56:25.107Z,7.78
2022-10-22T21:58:52.545Z,7.80
2022-10-22T22:01:20.055Z,7.80
2022-10-22T22:03:49.160Z,7.93
2022-10-22T22:06:21.175Z,7.20
2022-10-22T22:08:50.175Z,7.88
2022-10-22T22:11:18.668Z,7.47
2022-10-22T22:13:46.078Z,7.53
2022-10-22T22:16:15.726Z,7.45
2022-10-22T22:18:43.180Z,7.78
2022-10-22T22:21:16.270Z,6.85
2022-10-22T22:23:45.147Z,7.35
2022-10-22T22:26:13.311Z,7.38
2022-10-22T22:28:40.529Z,7.55
2022-10-22T22:31:22.223Z,7.15
2022-10-22T22:33:49.469Z,7.63
2022-10-22T22:36:16.717Z,7.30
2022-10-22T22:38:43.924Z,7.53
2022-10-22T22:41:11.299Z,7.32
2022-10-22T22:43:38.560Z,6.80
2022-10-22T22:46:09.852Z,7.18
2022-10-22T22:48:37.114Z,6.50
2022-10-22T22:51:05.707Z,6.68
2022-10-22T22:53:34.513Z,8.15
2022-10-22T22:56:13.801Z,7.00
2022-10-22T22:58:41.590Z,7.10
2022-10-22T23:01:25.630Z,7.82
2022-10-22T23:03:54.365Z,7.13
2022-10-22T23:06:22.641Z,7.50
2022-10-22T23:08:51.980Z,7.47
2022-10-22T23:11:20.172Z,7.28
2022-10-22T23:13:47.640Z,7.50
2022-10-22T23:16:20.169Z,7.30
2022-10-22T23:18:48.696Z,7.15
2022-10-22T23:21:18.528Z,7.25
2022-10-22T23:23:46.901Z,7.28
2022-10-22T23:26:17.425Z,7.60
2022-10-22T23:28:44.694Z,7.18
2022-10-22T23:31:13.988Z,7.50
2022-10-22T23:33:41.541Z,7.30
2022-10-22T23:36:09.309Z,7.28
2022-10-22T23:38:37.532Z,7.57
2022-10-22T23:41:05.126Z,6.97
2022-10-22T23:43:32.525Z,7.28
2022-10-22T23:45:59.853Z,7.47
2022-10-22T23:48:27.113Z,7.03
2022-10-22T23:50:54.401Z,7.47
2022-10-22T23:53:21.641Z,6.78
2022-10-22T23:55:48.885Z,7.13
2022-10-22T23:58:17.259Z,7.40
